createdAt,value
2023-02-06T00:01:06.515Z,51.34
2023-02-06T00:03:35.761Z,50.95
2023-02-06T00:06:03.709Z,50.39
2023-02-06T00:08:31.522Z,50.56
2023-02-06T00:10:59.395Z,49.88
2023-02-06T00:13:27.382Z,50.10
2023-02-06T00:15:55.283Z,51.27
2023-02-06T00:18:23.149Z,51.13
2023-02-06T00:20:52.424Z,50.60
2023-02-06T00:23:20.319Z,50.53
2023-02-06T00:25:48.153Z,50.20
2023-02-06T00:28:16.040Z,50.21
2023-02-06T00:30:47.465Z,51.25
2023-02-06T00:33:15.419Z,52.16
2023-02-06T00:35:43.338Z,51.27
2023-02-06T00:38:12.846Z,50.61
2023-02-06T00:40:40.684Z,50.90
2023-02-06T00:43:08.516Z,50.58
2023-02-06T00:45:36.679Z,51.47
2023-02-06T00:48:04.984Z,50.61
2023-02-06T00:50:32.821Z,50.57
2023-02-06T00:53:00.706Z,50.26
2023-02-06T00:55:29.948Z,50.70
2023-02-06T00:57:57.805Z,50.99
2023-02-06T01:00:25.740Z,50.63
2023-02-06T01:02:53.617Z,50.08
2023-02-06T01:05:24.446Z,50.57
2023-02-06T01:07:52.476Z,50.49
2023-02-06T01:10:20.607Z,50.54
2023-02-06T01:12:49.812Z,50.19
2023-02-06T01:15:17.701Z,50.43
2023-02-06T01:17:45.594Z,50.55
2023-02-06T01:20:14.732Z,50.59
2023-02-06T01:22:42.863Z,50.61
2023-02-06T01:25:12.976Z,50.18
2023-02-06T01:27:40.827Z,50.47
2023-02-06T01:30:12.066Z,50.63
2023-02-06T01:32:40.528Z,50.67
2023-02-06T01:35:09.677Z,50.80
2023-02-06T01:37:38.561Z,50.66
2023-02-06T01:40:10.323Z,49.82
2023-02-06T01:42:38.638Z,50.25
2023-02-06T01:45:43.449Z,50.37
2023-02-06T01:48:16.196Z,50.53
2023-02-06T01:50:47.726Z,50.32
2023-02-06T01:53:16.499Z,51.51
2023-02-06T01:55:46.356Z,51.32
2023-02-06T01:58:18.914Z,50.34
2023-02-06T02:00:47.207Z,50.40
2023-02-06T02:03:16.686Z,50.98
2023-02-06T02:05:44.771Z,50.59
2023-02-06T02:08:16.182Z,50.32
2023-02-06T02:10:44.413Z,50.26
2023-02-06T02:13:12.324Z,50.20
2023-02-06T02:15:43.441Z,50.81
2023-02-06T02:18:26.866Z,50.26
2023-02-06T02:21:24.466Z,51.09
2023-02-06T02:23:56.407Z,52.33
2023-02-06T02:26:58.648Z,51.92
2023-02-06T02:29:38.334Z,52.73
2023-02-06T02:32:34.135Z,53.80
2023-02-06T02:35:11.928Z,53.64
2023-02-06T02:37:50.100Z,55.17
2023-02-06T02:40:25.266Z,54.16
2023-02-06T02:43:02.961Z,56.21
2023-02-06T02:45:38.106Z,57.97
2023-02-06T02:48:08.025Z,54.88
2023-02-06T02:50:37.826Z,56.83
2023-02-06T02:53:06.651Z,54.92
2023-02-06T02:55:35.072Z,52.65
2023-02-06T02:58:07.871Z,51.37
2023-02-06T03:00:38.395Z,53.17
2023-02-06T03:03:08.148Z,53.37
2023-02-06T03:05:41.849Z,56.90
2023-02-06T03:08:17.244Z,55.83
2023-02-06T03:10:49.538Z,55.22
2023-02-06T03:13:21.919Z,59.39
2023-02-06T03:15:56.070Z,61.01
2023-02-06T03:18:26.687Z,58.45
2023-02-06T03:20:56.097Z,54.71
2023-02-06T03:23:26.222Z,53.68
2023-02-06T03:25:56.220Z,53.24
2023-02-06T03:28:27.692Z,55.07
2023-02-06T03:30:57.550Z,57.68
2023-02-06T03:33:32.196Z,56.24
2023-02-06T03:36:01.543Z,59.03
2023-02-06T03:38:29.448Z,57.89
2023-02-06T03:40:59.260Z,54.96
2023-02-06T03:43:28.679Z,53.86
2023-02-06T03:46:00.162Z,51.01
2023-02-06T03:48:31.439Z,53.47
2023-02-06T03:51:02.514Z,53.48
2023-02-06T03:53:31.187Z,55.43
2023-02-06T03:56:02.850Z,53.54
2023-02-06T03:58:30.914Z,50.32
2023-02-06T04:00:59.042Z,50.71
2023-02-06T04:03:28.023Z,50.92
2023-02-06T04:05:55.868Z,50.86
2023-02-06T04:08:25.145Z,50.46
2023-02-06T04:10:53.000Z,49.26
2023-02-06T04:13:20.934Z,47.58
2023-02-06T04:15:48.897Z,47.55
2023-02-06T04:18:16.754Z,48.78
2023-02-06T04:20:44.597Z,50.79
2023-02-06T04:23:12.490Z,48.08
2023-02-06T04:25:41.749Z,49.52
2023-02-06T04:28:09.860Z,48.08
2023-02-06T04:30:37.806Z,49.71
2023-02-06T04:33:06.272Z,48.67
2023-02-06T04:35:34.401Z,50.44
2023-02-06T04:38:02.485Z,52.15
2023-02-06T04:40:30.304Z,50.57
2023-02-06T04:42:59.550Z,49.58
2023-02-06T04:45:27.472Z,49.02
2023-02-06T04:47:55.333Z,54.06
2023-02-06T04:50:23.259Z,62.53
2023-02-06T04:52:51.269Z,68.46
2023-02-06T04:55:19.176Z,59.02
2023-02-06T04:57:47.024Z,62.60
2023-02-06T05:00:17.512Z,57.62
2023-02-06T05:02:45.451Z,64.90
2023-02-06T05:05:13.447Z,63.99
2023-02-06T05:07:41.259Z,63.75
2023-02-06T05:10:09.967Z,78.41
2023-02-06T05:12:37.869Z,78.37
2023-02-06T05:15:06.164Z,65.72
2023-02-06T05:17:35.444Z,61.72
2023-02-06T05:20:03.687Z,60.07
2023-02-06T05:22:31.589Z,61.40
2023-02-06T05:24:59.547Z,62.98
2023-02-06T05:27:27.478Z,67.74
2023-02-06T05:29:56.795Z,62.70
2023-02-06T05:32:24.623Z,62.42
2023-02-06T05:34:53.813Z,80.80
2023-02-06T05:37:21.653Z,75.83
2023-02-06T05:39:49.529Z,74.79
2023-02-06T05:42:17.383Z,78.09
2023-02-06T05:44:46.905Z,79.89
2023-02-06T05:47:14.771Z,86.09
2023-02-06T05:49:44.016Z,75.75
2023-02-06T05:52:13.354Z,73.89
2023-02-06T05:54:41.219Z,75.47
2023-02-06T05:57:09.103Z,64.17
2023-02-06T05:59:37.005Z,61.82
2023-02-06T06:02:05.183Z,68.46
2023-02-06T06:04:33.100Z,64.04
2023-02-06T06:07:01.090Z,60.24
2023-02-06T06:09:30.345Z,61.38
2023-02-06T06:11:58.192Z,66.08
2023-02-06T06:14:26.233Z,67.77
2023-02-06T06:16:54.086Z,73.19
2023-02-06T06:19:21.989Z,88.21
2023-02-06T06:21:49.906Z,70.20
2023-02-06T06:24:17.878Z,62.87
2023-02-06T06:26:47.141Z,60.98
2023-02-06T06:29:17.619Z,63.99
2023-02-06T06:31:45.768Z,61.11
2023-02-06T06:34:13.668Z,61.98
2023-02-06T06:36:41.503Z,60.79
2023-02-06T06:39:09.507Z,71.08
2023-02-06T06:41:37.376Z,64.18
2023-02-06T06:44:06.752Z,64.72
2023-02-06T06:46:34.660Z,68.78
2023-02-06T06:49:02.586Z,63.90
2023-02-06T06:51:30.534Z,65.04
2023-02-06T06:53:58.851Z,61.22
2023-02-06T06:56:26.992Z,62.33
2023-02-06T06:58:55.510Z,66.11
2023-02-06T07:01:24.892Z,60.80
2023-02-06T07:03:52.891Z,61.25
2023-02-06T07:06:20.782Z,59.89
2023-02-06T07:08:48.718Z,65.35
2023-02-06T07:11:16.963Z,60.85
2023-02-06T07:13:44.943Z,63.09
2023-02-06T07:16:13.437Z,64.03
2023-02-06T07:18:43.071Z,76.01
2023-02-06T07:21:11.076Z,63.83
2023-02-06T07:23:39.071Z,61.42
2023-02-06T07:26:06.989Z,61.73
2023-02-06T07:28:35.204Z,62.55
2023-02-06T07:31:03.736Z,72.21
2023-02-06T07:33:31.669Z,63.02
2023-02-06T07:36:03.828Z,65.71
2023-02-06T07:38:32.118Z,72.38
2023-02-06T07:41:02.365Z,71.22
2023-02-06T07:43:30.690Z,70.44
2023-02-06T07:46:00.235Z,78.05
2023-02-06T07:48:28.386Z,91.52
2023-02-06T07:50:56.302Z,100.00
2023-02-06T07:53:25.552Z,100.00
2023-02-06T07:55:53.378Z,100.00
2023-02-06T07:58:21.287Z,94.75
2023-02-06T08:00:49.204Z,94.17
2023-02-06T08:03:17.031Z,84.99
2023-02-06T08:05:44.932Z,90.08
2023-02-06T08:08:12.761Z,80.07
2023-02-06T08:10:42.046Z,65.17
2023-02-06T08:13:09.917Z,71.03
2023-02-06T08:15:38.067Z,71.85
2023-02-06T08:18:06.217Z,73.54
2023-02-06T08:20:34.338Z,81.57
2023-02-06T08:23:02.242Z,74.69
2023-02-06T08:25:30.169Z,83.09
2023-02-06T08:27:59.430Z,91.14
2023-02-06T08:30:27.380Z,89.19
2023-02-06T08:32:55.336Z,81.37
2023-02-06T08:35:23.171Z,67.20
2023-02-06T08:37:51.004Z,71.16
2023-02-06T08:40:21.170Z,72.50
2023-02-06T08:42:51.403Z,80.21
2023-02-06T08:45:20.631Z,80.08
2023-02-06T08:47:48.542Z,89.13
2023-02-06T08:50:17.088Z,84.43
2023-02-06T08:52:44.985Z,78.90
2023-02-06T08:55:12.871Z,68.27
2023-02-06T08:57:40.752Z,63.11
2023-02-06T09:00:10.127Z,64.04
2023-02-06T09:02:39.346Z,64.14
2023-02-06T09:05:07.457Z,69.44
2023-02-06T09:07:35.291Z,80.00
2023-02-06T09:10:03.192Z,84.14
2023-02-06T09:12:31.135Z,72.37
2023-02-06T09:14:59.026Z,99.42
2023-02-06T09:17:27.264Z,89.00
2023-02-06T09:19:56.569Z,77.66
2023-02-06T09:22:24.506Z,80.08
2023-02-06T09:24:52.439Z,90.21
2023-02-06T09:27:20.391Z,73.72
2023-02-06T09:29:48.945Z,66.87
2023-02-06T09:32:16.860Z,62.46
2023-02-06T09:34:44.740Z,65.04
2023-02-06T09:37:13.940Z,60.99
2023-02-06T09:39:41.996Z,60.88
2023-02-06T09:42:14.087Z,61.49
2023-02-06T09:44:44.349Z,62.62
2023-02-06T09:47:19.657Z,65.64
2023-02-06T09:49:49.461Z,62.54
2023-02-06T09:52:31.387Z,65.09
2023-02-06T09:55:04.891Z,64.98
2023-02-06T09:57:40.535Z,63.61
2023-02-06T10:00:17.639Z,60.79
2023-02-06T10:03:09.166Z,63.83
2023-02-06T10:05:46.978Z,67.14
2023-02-06T10:08:21.980Z,67.11
2023-02-06T10:10:52.118Z,64.27
2023-02-06T10:13:23.853Z,62.69
2023-02-06T10:15:54.029Z,72.10
2023-02-06T10:18:27.266Z,73.11
2023-02-06T10:20:58.942Z,68.70
2023-02-06T10:23:32.369Z,80.71
2023-02-06T10:26:17.174Z,71.29
2023-02-06T10:28:46.211Z,66.03
2023-02-06T10:31:47.568Z,65.82
2023-02-06T10:34:26.824Z,70.37
2023-02-06T10:37:06.303Z,68.24
2023-02-06T10:39:46.639Z,67.55
2023-02-06T10:42:21.145Z,68.72
2023-02-06T10:44:53.867Z,66.91
2023-02-06T10:47:29.753Z,67.03
2023-02-06T10:50:01.763Z,62.98
2023-02-06T10:52:32.129Z,61.32
2023-02-06T10:55:05.085Z,59.07
2023-02-06T10:57:33.520Z,61.97
2023-02-06T11:00:02.871Z,61.12
2023-02-06T11:02:40.025Z,61.01
2023-02-06T11:05:10.465Z,62.13
2023-02-06T11:07:41.114Z,64.01
2023-02-06T11:10:14.123Z,61.67
2023-02-06T11:12:43.912Z,62.04
2023-02-06T11:15:21.608Z,63.65
2023-02-06T11:17:50.310Z,62.35
2023-02-06T11:20:22.132Z,60.80
2023-02-06T11:22:53.396Z,60.03
2023-02-06T11:25:33.616Z,59.67
2023-02-06T11:28:02.113Z,60.45
2023-02-06T11:30:33.522Z,59.75
2023-02-06T11:33:05.769Z,59.28
2023-02-06T11:35:38.934Z,57.81
2023-02-06T11:38:13.805Z,59.60
2023-02-06T11:40:43.862Z,59.14
2023-02-06T11:43:20.859Z,60.29
2023-02-06T11:45:52.260Z,58.44
2023-02-06T11:48:36.161Z,57.91
2023-02-06T11:51:04.770Z,56.66
2023-02-06T11:53:32.890Z,56.56
2023-02-06T11:56:05.058Z,57.03
2023-02-06T11:58:34.968Z,57.70
2023-02-06T12:01:05.845Z,57.16
2023-02-06T12:03:36.986Z,55.91
2023-02-06T12:06:09.856Z,55.39
2023-02-06T12:08:45.449Z,55.40
2023-02-06T12:11:19.122Z,56.66
2023-02-06T12:13:50.348Z,55.39
2023-02-06T12:16:18.997Z,54.19
2023-02-06T12:18:50.148Z,53.76
2023-02-06T12:21:24.435Z,53.06
2023-02-06T12:23:54.695Z,51.81
2023-02-06T12:26:26.332Z,56.02
2023-02-06T12:28:59.510Z,51.51
2023-02-06T12:31:33.278Z,50.62
2023-02-06T12:34:10.911Z,51.00
2023-02-06T12:36:50.895Z,50.21
2023-02-06T12:39:21.084Z,50.29
2023-02-06T12:42:02.188Z,49.90
2023-02-06T12:44:33.189Z,49.61
2023-02-06T12:47:04.812Z,49.24
2023-02-06T12:49:37.024Z,49.51
2023-02-06T12:52:10.404Z,49.56
2023-02-06T12:54:43.306Z,49.23
2023-02-06T12:57:16.304Z,49.07
2023-02-06T13:00:09.576Z,48.80
2023-02-06T13:03:02.461Z,48.48
2023-02-06T13:05:34.659Z,48.73
2023-02-06T13:08:06.933Z,48.30
2023-02-06T13:10:35.172Z,47.46
2023-02-06T13:13:05.104Z,47.29
2023-02-06T13:15:37.420Z,47.24
2023-02-06T13:18:36.371Z,46.81
2023-02-06T13:21:20.576Z,47.93
2023-02-06T13:24:15.599Z,49.17
2023-02-06T13:27:20.390Z,49.24
2023-02-06T13:29:51.546Z,49.40
2023-02-06T13:32:47.824Z,49.01
2023-02-06T13:35:29.087Z,49.46
2023-02-06T13:38:28.472Z,49.39
2023-02-06T13:41:18.958Z,49.29
2023-02-06T13:43:50.707Z,48.66
2023-02-06T13:46:21.895Z,48.74
2023-02-06T13:49:06.365Z,48.60
2023-02-06T13:51:50.302Z,48.83
2023-02-06T13:54:39.607Z,49.01
2023-02-06T13:57:32.788Z,49.21
2023-02-06T14:00:02.533Z,48.99
2023-02-06T14:02:40.040Z,49.44
2023-02-06T14:05:12.622Z,49.41
2023-02-06T14:08:01.082Z,49.94
2023-02-06T14:11:19.155Z,50.07
2023-02-06T14:14:01.894Z,52.21
2023-02-06T14:16:38.441Z,55.72
2023-02-06T14:19:13.967Z,51.69
2023-02-06T14:21:54.995Z,50.87
2023-02-06T14:24:44.874Z,50.78
2023-02-06T14:27:29.400Z,50.12
2023-02-06T14:30:06.008Z,49.92
2023-02-06T14:32:42.354Z,49.90
2023-02-06T14:35:29.358Z,48.29
2023-02-06T14:38:07.775Z,46.91
2023-02-06T14:40:41.481Z,47.61
2023-02-06T14:43:16.310Z,47.29
2023-02-06T14:45:49.675Z,46.02
2023-02-06T14:48:27.600Z,41.81
2023-02-06T14:50:57.863Z,38.94
2023-02-06T14:53:27.643Z,37.58
2023-02-06T14:56:07.611Z,37.24
2023-02-06T14:58:36.102Z,35.26
2023-02-06T15:01:20.450Z,33.03
2023-02-06T15:03:49.982Z,32.61
2023-02-06T15:06:34.405Z,33.47
2023-02-06T15:09:02.746Z,33.04
2023-02-06T15:11:32.636Z,32.67
2023-02-06T15:14:03.301Z,32.56
2023-02-06T15:16:33.058Z,32.40
2023-02-06T15:19:12.203Z,32.33
2023-02-06T15:21:44.125Z,32.96
2023-02-06T15:24:24.493Z,32.01
2023-02-06T15:26:56.074Z,32.66
2023-02-06T15:29:26.778Z,32.62
2023-02-06T15:31:56.272Z,32.56
2023-02-06T15:34:25.659Z,32.65
2023-02-06T15:36:55.081Z,33.59
2023-02-06T15:39:23.123Z,33.99
2023-02-06T15:41:53.590Z,35.12
2023-02-06T15:44:27.021Z,36.43
2023-02-06T15:46:56.033Z,37.29
2023-02-06T15:49:35.902Z,40.93
2023-02-06T15:52:06.341Z,42.74
2023-02-06T15:54:34.464Z,44.73
2023-02-06T15:57:05.626Z,46.08
2023-02-06T15:59:36.078Z,46.41
2023-02-06T16:02:05.019Z,46.89
2023-02-06T16:04:35.091Z,47.79
2023-02-06T16:07:07.368Z,48.90
2023-02-06T16:09:41.136Z,51.05
2023-02-06T16:12:09.625Z,51.93
2023-02-06T16:14:39.366Z,53.22
2023-02-06T16:17:23.958Z,53.85
2023-02-06T16:19:54.720Z,52.99
2023-02-06T16:22:29.174Z,52.34
2023-02-06T16:25:14.544Z,51.61
2023-02-06T16:27:45.720Z,52.35
2023-02-06T16:30:23.532Z,52.56
2023-02-06T16:32:53.551Z,51.94
2023-02-06T16:35:22.795Z,51.39
2023-02-06T16:37:53.507Z,52.22
2023-02-06T16:40:21.615Z,53.24
2023-02-06T16:42:49.520Z,54.64
2023-02-06T16:45:19.738Z,55.12
2023-02-06T16:47:47.745Z,55.53
2023-02-06T16:50:16.113Z,56.27
2023-02-06T16:52:51.261Z,56.63
2023-02-06T16:55:23.427Z,59.31
2023-02-06T16:57:54.185Z,59.00
2023-02-06T17:00:25.522Z,58.48
2023-02-06T17:02:54.211Z,58.67
2023-02-06T17:05:23.651Z,60.23
2023-02-06T17:07:51.742Z,61.39
2023-02-06T17:10:23.460Z,64.92
2023-02-06T17:12:54.626Z,65.19
2023-02-06T17:15:22.622Z,64.61
2023-02-06T17:17:50.513Z,75.43
2023-02-06T17:20:25.894Z,74.98
2023-02-06T17:22:53.786Z,72.51
2023-02-06T17:25:23.001Z,66.53
2023-02-06T17:27:50.906Z,64.72
2023-02-06T17:30:20.713Z,65.34
2023-02-06T17:32:48.680Z,62.96
2023-02-06T17:35:17.112Z,61.53
2023-02-06T17:37:45.012Z,62.28
2023-02-06T17:40:18.839Z,63.16
2023-02-06T17:42:48.747Z,65.05
2023-02-06T17:45:16.863Z,64.96
2023-02-06T17:47:45.065Z,71.04
2023-02-06T17:50:15.477Z,72.11
2023-02-06T17:52:43.397Z,64.87
2023-02-06T17:55:11.513Z,63.30
2023-02-06T17:57:39.849Z,63.36
2023-02-06T18:00:14.165Z,63.53
2023-02-06T18:02:42.100Z,62.70
2023-02-06T18:05:10.399Z,64.35
2023-02-06T18:07:38.682Z,71.92
2023-02-06T18:10:07.604Z,66.40
2023-02-06T18:12:35.825Z,64.85
2023-02-06T18:15:03.878Z,64.38
2023-02-06T18:17:33.218Z,64.46
2023-02-06T18:20:01.397Z,67.68
2023-02-06T18:22:29.413Z,69.11
2023-02-06T18:24:57.444Z,70.13
2023-02-06T18:27:25.304Z,67.53
2023-02-06T18:29:55.146Z,65.06
2023-02-06T18:32:23.199Z,62.33
2023-02-06T18:34:52.411Z,61.78
2023-02-06T18:37:20.345Z,61.53
2023-02-06T18:39:48.260Z,60.38
2023-02-06T18:42:33.269Z,59.85
2023-02-06T18:45:03.249Z,61.43
2023-02-06T18:47:31.989Z,63.59
2023-02-06T18:50:01.242Z,62.71
2023-02-06T18:52:29.168Z,62.11
2023-02-06T18:54:57.026Z,61.46
2023-02-06T18:57:24.841Z,62.30
2023-02-06T18:59:52.780Z,65.38
2023-02-06T19:02:20.669Z,63.05
2023-02-06T19:04:48.639Z,63.80
2023-02-06T19:07:18.392Z,64.03
2023-02-06T19:09:46.338Z,63.68
2023-02-06T19:12:14.289Z,62.93
2023-02-06T19:14:42.236Z,61.82
2023-02-06T19:17:10.065Z,62.63
2023-02-06T19:19:37.960Z,61.63
2023-02-06T19:22:05.926Z,60.75
2023-02-06T19:24:35.200Z,60.07
2023-02-06T19:27:03.097Z,61.54
2023-02-06T19:29:36.002Z,63.32
2023-02-06T19:32:05.155Z,64.71
2023-02-06T19:34:35.982Z,64.42
2023-02-06T19:37:04.202Z,61.75
2023-02-06T19:39:34.157Z,61.06
2023-02-06T19:42:06.420Z,62.56
2023-02-06T19:44:34.684Z,60.85
2023-02-06T19:47:03.105Z,60.23
2023-02-06T19:49:31.617Z,59.38
2023-02-06T19:51:59.564Z,58.35
2023-02-06T19:54:27.608Z,61.18
2023-02-06T19:56:55.614Z,65.86
2023-02-06T19:59:28.348Z,65.16
2023-02-06T20:01:58.337Z,65.60
2023-02-06T20:04:30.195Z,65.52
2023-02-06T20:06:58.151Z,65.56
2023-02-06T20:09:27.015Z,65.61
2023-02-06T20:11:55.344Z,63.94
2023-02-06T20:14:25.423Z,64.88
2023-02-06T20:16:53.433Z,62.97
2023-02-06T20:19:24.269Z,61.57
2023-02-06T20:21:53.741Z,61.43
2023-02-06T20:24:23.928Z,60.18
2023-02-06T20:26:55.770Z,60.02
2023-02-06T20:29:27.616Z,60.71
2023-02-06T20:31:56.546Z,59.77
2023-02-06T20:34:24.935Z,59.75
2023-02-06T20:36:53.313Z,63.15
2023-02-06T20:39:21.385Z,72.37
2023-02-06T20:41:50.915Z,67.50
2023-02-06T20:44:20.014Z,64.36
2023-02-06T20:46:49.956Z,64.92
2023-02-06T20:49:19.637Z,65.02
2023-02-06T20:51:48.990Z,63.61
2023-02-06T20:54:17.113Z,63.30
2023-02-06T20:56:45.157Z,61.74
2023-02-06T20:59:14.274Z,60.61
2023-02-06T21:01:42.692Z,60.71
2023-02-06T21:04:13.536Z,60.91
2023-02-06T21:06:41.681Z,60.61
2023-02-06T21:09:10.175Z,60.29
2023-02-06T21:11:40.394Z,60.14
2023-02-06T21:14:08.717Z,60.21
2023-02-06T21:16:38.711Z,60.95
2023-02-06T21:19:07.799Z,61.81
2023-02-06T21:21:37.495Z,63.20
2023-02-06T21:24:06.265Z,63.67
2023-02-06T21:26:34.485Z,63.42
2023-02-06T21:29:03.391Z,61.98
2023-02-06T21:31:36.933Z,66.32
2023-02-06T21:34:08.986Z,70.51
2023-02-06T21:36:39.548Z,64.72
2023-02-06T21:39:07.847Z,62.48
2023-02-06T21:41:36.043Z,62.21
2023-02-06T21:44:04.460Z,61.96
2023-02-06T21:46:33.324Z,60.49
2023-02-06T21:49:01.204Z,60.45
2023-02-06T21:51:29.225Z,59.30
2023-02-06T21:53:58.830Z,59.34
2023-02-06T21:56:28.170Z,61.07
2023-02-06T21:58:56.245Z,61.51
2023-02-06T22:01:27.090Z,59.32
2023-02-06T22:03:54.824Z,60.27
2023-02-06T22:06:22.495Z,58.83
2023-02-06T22:08:51.725Z,58.70
2023-02-06T22:11:21.231Z,60.62
2023-02-06T22:13:49.036Z,60.28
2023-02-06T22:16:17.209Z,59.51
2023-02-06T22:18:44.883Z,60.26
2023-02-06T22:21:13.926Z,60.90
2023-02-06T22:23:41.812Z,60.64
2023-02-06T22:26:10.203Z,60.68
2023-02-06T22:28:39.206Z,60.90
2023-02-06T22:31:07.440Z,61.47
2023-02-06T22:33:35.269Z,60.07
2023-02-06T22:36:04.463Z,59.46
2023-02-06T22:38:32.107Z,58.73
2023-02-06T22:41:00.810Z,59.36
2023-02-06T22:43:28.814Z,59.05
2023-02-06T22:45:57.818Z,57.85
2023-02-06T22:48:25.647Z,57.78
2023-02-06T22:50:53.598Z,57.31
2023-02-06T22:53:36.383Z,58.15
2023-02-06T22:56:22.951Z,57.82
2023-02-06T22:58:50.946Z,57.41
2023-02-06T23:01:20.371Z,57.83
2023-02-06T23:03:48.174Z,56.71
2023-02-06T23:06:16.064Z,57.38
2023-02-06T23:08:44.033Z,59.42
2023-02-06T23:11:11.799Z,60.44
2023-02-06T23:13:39.629Z,60.40
2023-02-06T23:16:07.679Z,59.41
2023-02-06T23:18:36.865Z,59.40
2023-02-06T23:21:06.008Z,59.35
2023-02-06T23:23:33.721Z,59.24
2023-02-06T23:26:01.428Z,58.86
2023-02-06T23:28:29.126Z,58.53
2023-02-06T23:30:56.817Z,59.08
2023-02-06T23:33:24.576Z,58.69
2023-02-06T23:35:53.623Z,58.70
2023-02-06T23:38:21.326Z,58.36
2023-02-06T23:40:49.191Z,57.63
2023-02-06T23:43:17.072Z,58.56
2023-02-06T23:45:45.077Z,58.54
2023-02-06T23:48:12.935Z,58.13
2023-02-06T23:50:40.850Z,57.01
2023-02-06T23:53:12.757Z,57.07
2023-02-06T23:55:41.074Z,57.50
2023-02-06T23:58:08.983Z,57.70
